sensor_id;sensor_type;location;lat;lon;timestamp;pressure;altitude;pressure_sealevel;temperature;humidity
63715;BME280;49858;48.956;9.076;2023-04-12T00:00:07;98240.91;;;12.39;100.00
63715;BME280;49858;48.956;9.076;2023-04-12T00:02:38;98235.31;;;12.76;100.00
63715;BME280;49858;48.956;9.076;2023-04-12T00:05:08;98235.16;;;12.17;100.00
63715;BME280;49858;48.956;9.076;2023-04-12T00:07:38;98243.16;;;11.92;100.00
63715;BME280;49858;48.956;9.076;2023-04-12T00:10:10;98242.38;;;11.92;100.00
63715;BME280;49858;48.956;9.076;2023-04-12T00:12:41;98238.47;;;10.57;100.00
63715;BME280;49858;48.956;9.076;2023-04-12T00:15:09;98235.72;;;10.34;100.00
63715;BME280;49858;48.956;9.076;2023-04-12T00:17:37;98238.22;;;10.42;100.00
63715;BME280;49858;48.956;9.076;2023-04-12T00:20:06;98228.88;;;10.05;100.00
63715;BME280;49858;48.956;9.076;2023-04-12T00:22:42;98231.13;;;10.41;100.00
63715;BME280;49858;48.956;9.076;2023-04-12T00:25:10;98230.75;;;10.66;100.00
63715;BME280;49858;48.956;9.076;2023-04-12T00:27:38;98230.69;;;10.39;100.00
63715;BME280;49858;48.956;9.076;2023-04-12T00:30:07;98231.41;;;10.13;100.00
63715;BME280;49858;48.956;9.076;2023-04-12T00:32:35;98227.41;;;10.11;100.00
63715;BME280;49858;48.956;9.076;2023-04-12T00:35:03;98217.34;;;9.57;100.00
63715;BME280;49858;48.956;9.076;2023-04-12T00:37:32;98226.59;;;9.68;100.00
63715;BME280;49858;48.956;9.076;2023-04-12T00:40:04;98213.44;;;9.58;100.00
63715;BME280;49858;48.956;9.076;2023-04-12T00:42:35;98215.94;;;9.08;100.00
63715;BME280;49858;48.956;9.076;2023-04-12T00:45:03;98221.44;;;8.92;100.00
63715;BME280;49858;48.956;9.076;2023-04-12T00:47:34;98210.31;;;8.85;100.00
63715;BME280;49858;48.956;9.076;2023-04-12T00:50:03;98212.72;;;8.71;100.00
63715;BME280;49858;48.956;9.076;2023-04-12T00:52:31;98203.72;;;8.70;100.00
63715;BME280;49858;48.956;9.076;2023-04-12T00:55:00;98203.88;;;8.62;100.00
63715;BME280;49858;48.956;9.076;2023-04-12T00:57:32;98190.47;;;8.92;100.00
63715;BME280;49858;48.956;9.076;2023-04-12T01:00:01;98195.00;;;8.84;100.00
63715;BME280;49858;48.956;9.076;2023-04-12T01:02:32;98204.09;;;8.88;100.00
63715;BME280;49858;48.956;9.076;2023-04-12T01:05:01;98196.16;;;8.83;100.00
63715;BME280;49858;48.956;9.076;2023-04-12T01:07:34;98198.22;;;9.06;100.00
63715;BME280;49858;48.956;9.076;2023-04-12T01:10:17;98194.22;;;9.58;100.00
63715;BME280;49858;48.956;9.076;2023-04-12T01:13:00;98188.41;;;9.82;100.00
63715;BME280;49858;48.956;9.076;2023-04-12T01:15:33;98182.31;;;9.69;100.00
63715;BME280;49858;48.956;9.076;2023-04-12T01:18:08;98182.34;;;9.73;100.00
63715;BME280;49858;48.956;9.076;2023-04-12T01:20:41;98181.09;;;9.90;100.00
63715;BME280;49858;48.956;9.076;2023-04-12T01:23:33;98178.28;;;9.86;100.00
63715;BME280;49858;48.956;9.076;2023-04-12T01:26:29;98174.44;;;9.91;100.00
63715;BME280;49858;48.956;9.076;2023-04-12T01:29:06;98167.63;;;9.42;100.00
63715;BME280;49858;48.956;9.076;2023-04-12T01:31:39;98167.72;;;9.65;100.00
63715;BME280;49858;48.956;9.076;2023-04-12T01:34:09;98178.16;;;9.40;100.00
63715;BME280;49858;48.956;9.076;2023-04-12T01:36:39;98165.19;;;9.57;100.00
63715;BME280;49858;48.956;9.076;2023-04-12T01:39:09;98170.50;;;9.69;100.00
63715;BME280;49858;48.956;9.076;2023-04-12T01:41:39;98180.94;;;9.60;100.00
63715;BME280;49858;48.956;9.076;2023-04-12T01:44:11;98166.09;;;10.07;100.00
63715;BME280;49858;48.956;9.076;2023-04-12T01:46:39;98148.22;;;9.93;100.00
63715;BME280;49858;48.956;9.076;2023-04-12T01:49:08;98142.72;;;9.93;100.00
63715;BME280;49858;48.956;9.076;2023-04-12T01:51:49;98133.44;;;10.24;100.00
63715;BME280;49858;48.956;9.076;2023-04-12T01:54:20;98128.28;;;10.23;100.00
63715;BME280;49858;48.956;9.076;2023-04-12T01:56:55;98127.91;;;10.02;100.00
63715;BME280;49858;48.956;9.076;2023-04-12T01:59:30;98128.47;;;10.57;100.00
63715;BME280;49858;48.956;9.076;2023-04-12T02:02:02;98111.88;;;11.06;100.00
63715;BME280;49858;48.956;9.076;2023-04-12T02:04:31;98102.94;;;11.16;100.00
63715;BME280;49858;48.956;9.076;2023-04-12T02:07:00;98103.22;;;10.51;100.00
63715;BME280;49858;48.956;9.076;2023-04-12T02:09:28;98103.81;;;11.24;100.00
63715;BME280;49858;48.956;9.076;2023-04-12T02:11:56;98095.53;;;11.24;100.00
63715;BME280;49858;48.956;9.076;2023-04-12T02:14:23;98091.03;;;11.42;100.00
63715;BME280;49858;48.956;9.076;2023-04-12T02:16:54;98084.88;;;11.93;100.00
63715;BME280;49858;48.956;9.076;2023-04-12T02:19:24;98075.44;;;11.94;100.00
63715;BME280;49858;48.956;9.076;2023-04-12T02:21:52;98066.97;;;11.73;100.00
63715;BME280;49858;48.956;9.076;2023-04-12T02:24:20;98061.75;;;11.27;100.00
63715;BME280;49858;48.956;9.076;2023-04-12T02:26:50;98062.66;;;11.35;100.00
63715;BME280;49858;48.956;9.076;2023-04-12T02:29:17;98058.19;;;10.89;100.00
63715;BME280;49858;48.956;9.076;2023-04-12T02:31:46;98055.69;;;10.81;100.00
63715;BME280;49858;48.956;9.076;2023-04-12T02:34:16;98054.31;;;10.37;100.00
63715;BME280;49858;48.956;9.076;2023-04-12T02:36:50;98051.84;;;10.29;100.00
63715;BME280;49858;48.956;9.076;2023-04-12T02:39:18;98053.09;;;9.85;100.00
63715;BME280;49858;48.956;9.076;2023-04-12T02:41:50;98055.28;;;9.76;100.00
63715;BME280;49858;48.956;9.076;2023-04-12T02:44:18;98054.84;;;9.97;100.00
63715;BME280;49858;48.956;9.076;2023-04-12T02:47:01;98045.22;;;9.61;100.00
63715;BME280;49858;48.956;9.076;2023-04-12T02:49:33;98041.88;;;9.71;100.00
63715;BME280;49858;48.956;9.076;2023-04-12T02:52:01;98042.09;;;9.85;100.00
63715;BME280;49858;48.956;9.076;2023-04-12T02:54:37;98025.53;;;10.05;100.00
63715;BME280;49858;48.956;9.076;2023-04-12T02:57:09;98031.56;;;10.14;100.00
63715;BME280;49858;48.956;9.076;2023-04-12T02:59:42;98026.25;;;10.24;100.00
63715;BME280;49858;48.956;9.076;2023-04-12T03:02:17;98023.03;;;10.45;100.00
63715;BME280;49858;48.956;9.076;2023-04-12T03:04:47;98022.16;;;10.15;100.00
63715;BME280;49858;48.956;9.076;2023-04-12T03:07:20;98009.63;;;9.91;100.00
63715;BME280;49858;48.956;9.076;2023-04-12T03:09:50;98015.84;;;9.88;100.00
63715;BME280;49858;48.956;9.076;2023-04-12T03:12:20;98005.34;;;9.93;100.00
63715;BME280;49858;48.956;9.076;2023-04-12T03:15:01;97993.56;;;9.93;100.00
63715;BME280;49858;48.956;9.076;2023-04-12T03:17:28;97983.25;;;10.13;100.00
63715;BME280;49858;48.956;9.076;2023-04-12T03:20:03;97983.78;;;9.95;100.00
63715;BME280;49858;48.956;9.076;2023-04-12T03:22:39;97981.34;;;9.90;100.00
63715;BME280;49858;48.956;9.076;2023-04-12T03:25:09;97973.91;;;9.91;100.00
63715;BME280;49858;48.956;9.076;2023-04-12T03:27:44;97967.19;;;9.62;100.00
63715;BME280;49858;48.956;9.076;2023-04-12T03:30:15;97974.25;;;9.63;100.00
63715;BME280;49858;48.956;9.076;2023-04-12T03:32:43;97967.41;;;10.03;100.00
63715;BME280;49858;48.956;9.076;2023-04-12T03:35:13;97959.59;;;10.05;100.00
63715;BME280;49858;48.956;9.076;2023-04-12T03:37:42;97951.44;;;9.59;100.00
63715;BME280;49858;48.956;9.076;2023-04-12T03:40:11;97946.38;;;9.61;100.00
63715;BME280;49858;48.956;9.076;2023-04-12T03:42:45;97946.53;;;9.71;100.00
63715;BME280;49858;48.956;9.076;2023-04-12T03:45:14;97942.91;;;9.90;100.00
63715;BME280;49858;48.956;9.076;2023-04-12T03:47:47;97950.13;;;9.76;100.00
63715;BME280;49858;48.956;9.076;2023-04-12T03:50:18;97945.22;;;9.88;100.00
63715;BME280;49858;48.956;9.076;2023-04-12T03:52:53;97945.44;;;10.03;100.00
63715;BME280;49858;48.956;9.076;2023-04-12T03:55:26;97933.59;;;9.98;100.00
63715;BME280;49858;48.956;9.076;2023-04-12T03:57:55;97925.44;;;10.06;100.00
63715;BME280;49858;48.956;9.076;2023-04-12T04:00:29;97918.69;;;9.99;100.00
63715;BME280;49858;48.956;9.076;2023-04-12T04:03:05;97919.88;;;9.72;100.00
63715;BME280;49858;48.956;9.076;2023-04-12T04:05:43;97913.91;;;9.93;100.00
63715;BME280;49858;48.956;9.076;2023-04-12T04:08:13;97906.78;;;9.88;100.00
63715;BME280;49858;48.956;9.076;2023-04-12T04:10:59;97908.44;;;9.96;100.00
63715;BME280;49858;48.956;9.076;2023-04-12T04:13:34;97903.38;;;9.72;100.00
63715;BME280;49858;48.956;9.076;2023-04-12T04:16:06;97899.25;;;9.59;100.00
63715;BME280;49858;48.956;9.076;2023-04-12T04:18:39;97897.94;;;9.49;100.00
63715;BME280;49858;48.956;9.076;2023-04-12T04:21:10;97885.53;;;9.59;100.00
63715;BME280;49858;48.956;9.076;2023-04-12T04:23:40;97884.78;;;9.35;100.00
63715;BME280;49858;48.956;9.076;2023-04-12T04:26:10;97878.97;;;9.40;100.00
63715;BME280;49858;48.956;9.076;2023-04-12T04:28:48;97877.41;;;9.39;100.00
63715;BME280;49858;48.956;9.076;2023-04-12T04:31:21;97876.22;;;9.40;100.00
63715;BME280;49858;48.956;9.076;2023-04-12T04:33:52;97876.38;;;9.25;100.00
63715;BME280;49858;48.956;9.076;2023-04-12T04:36:28;97875.88;;;9.42;100.00
63715;BME280;49858;48.956;9.076;2023-04-12T04:38:56;97873.22;;;9.49;100.00
63715;BME280;49858;48.956;9.076;2023-04-12T04:41:50;97871.50;;;9.14;100.00
63715;BME280;49858;48.956;9.076;2023-04-12T04:44:43;97870.00;;;9.43;100.00
63715;BME280;49858;48.956;9.076;2023-04-12T04:47:11;97858.44;;;9.57;100.00
63715;BME280;49858;48.956;9.076;2023-04-12T04:49:40;97859.16;;;9.51;100.00
63715;BME280;49858;48.956;9.076;2023-04-12T04:52:24;97856.22;;;9.66;100.00
63715;BME280;49858;48.956;9.076;2023-04-12T04:54:58;97851.31;;;9.79;100.00
63715;BME280;49858;48.956;9.076;2023-04-12T04:57:32;97851.13;;;9.65;100.00
63715;BME280;49858;48.956;9.076;2023-04-12T05:00:00;97854.53;;;9.58;100.00
63715;BME280;49858;48.956;9.076;2023-04-12T05:02:37;97847.56;;;9.64;100.00
63715;BME280;49858;48.956;9.076;2023-04-12T05:05:12;97852.50;;;9.82;100.00
63715;BME280;49858;48.956;9.076;2023-04-12T05:07:44;97854.53;;;9.58;100.00
63715;BME280;49858;48.956;9.076;2023-04-12T05:10:13;97850.84;;;9.47;100.00
63715;BME280;49858;48.956;9.076;2023-04-12T05:12:42;97848.47;;;9.45;100.00
63715;BME280;49858;48.956;9.076;2023-04-12T05:15:12;97842.25;;;9.48;100.00
63715;BME280;49858;48.956;9.076;2023-04-12T05:17:40;97852.91;;;9.27;100.00
63715;BME280;49858;48.956;9.076;2023-04-12T05:20:09;97852.00;;;9.19;100.00
63715;BME280;49858;48.956;9.076;2023-04-12T05:22:37;97840.66;;;8.98;100.00
63715;BME280;49858;48.956;9.076;2023-04-12T05:25:07;97839.47;;;8.95;100.00
63715;BME280;49858;48.956;9.076;2023-04-12T05:27:43;97836.59;;;8.88;100.00
63715;BME280;49858;48.956;9.076;2023-04-12T05:30:14;97831.41;;;9.06;100.00
63715;BME280;49858;48.956;9.076;2023-04-12T05:32:42;97823.41;;;8.98;100.00
63715;BME280;49858;48.956;9.076;2023-04-12T05:35:15;97817.19;;;9.01;100.00
63715;BME280;49858;48.956;9.076;2023-04-12T05:37:44;97827.47;;;8.81;100.00
63715;BME280;49858;48.956;9.076;2023-04-12T05:40:14;97815.97;;;8.98;100.00
63715;BME280;49858;48.956;9.076;2023-04-12T05:42:42;97811.72;;;9.01;100.00
63715;BME280;49858;48.956;9.076;2023-04-12T05:45:10;97808.84;;;8.93;100.00
63715;BME280;49858;48.956;9.076;2023-04-12T05:47:41;97804.97;;;9.21;100.00
63715;BME280;49858;48.956;9.076;2023-04-12T05:50:09;97806.72;;;9.06;100.00
63715;BME280;49858;48.956;9.076;2023-04-12T05:52:38;97795.94;;;9.20;100.00
63715;BME280;49858;48.956;9.076;2023-04-12T05:55:08;97791.25;;;9.21;100.00
63715;BME280;49858;48.956;9.076;2023-04-12T05:57:41;97783.97;;;9.32;100.00
63715;BME280;49858;48.956;9.076;2023-04-12T06:00:10;97774.22;;;9.08;100.00
63715;BME280;49858;48.956;9.076;2023-04-12T06:02:44;97768.38;;;9.36;100.00
63715;BME280;49858;48.956;9.076;2023-04-12T06:05:16;97757.84;;;9.42;100.00
63715;BME280;49858;48.956;9.076;2023-04-12T06:07:45;97759.59;;;9.27;100.00
63715;BME280;49858;48.956;9.076;2023-04-12T06:10:15;97753.22;;;9.19;100.00
63715;BME280;49858;48.956;9.076;2023-04-12T06:12:49;97752.88;;;9.51;100.00
63715;BME280;49858;48.956;9.076;2023-04-12T06:15:18;97745.97;;;9.34;100.00
63715;BME280;49858;48.956;9.076;2023-04-12T06:17:50;97745.75;;;9.46;100.00
63715;BME280;49858;48.956;9.076;2023-04-12T06:20:18;97737.09;;;9.78;100.00
63715;BME280;49858;48.956;9.076;2023-04-12T06:22:48;97726.22;;;9.85;100.00
63715;BME280;49858;48.956;9.076;2023-04-12T06:25:16;97724.66;;;9.88;100.00
63715;BME280;49858;48.956;9.076;2023-04-12T06:27:46;97726.28;;;9.92;100.00
63715;BME280;49858;48.956;9.076;2023-04-12T06:30:17;97720.38;;;9.90;100.00
63715;BME280;49858;48.956;9.076;2023-04-12T06:32:47;97716.53;;;9.61;100.00
63715;BME280;49858;48.956;9.076;2023-04-12T06:35:14;97709.84;;;9.62;100.00
63715;BME280;49858;48.956;9.076;2023-04-12T06:37:43;97708.56;;;9.86;100.00
63715;BME280;49858;48.956;9.076;2023-04-12T06:40:11;97703.66;;;9.69;100.00
63715;BME280;49858;48.956;9.076;2023-04-12T06:42:39;97698.59;;;9.71;100.00
63715;BME280;49858;48.956;9.076;2023-04-12T06:45:09;97696.00;;;9.85;100.00
63715;BME280;49858;48.956;9.076;2023-04-12T06:47:38;97693.25;;;9.85;100.00
63715;BME280;49858;48.956;9.076;2023-04-12T06:50:08;97690.13;;;9.87;100.00
63715;BME280;49858;48.956;9.076;2023-04-12T06:52:36;97687.00;;;9.51;100.00
63715;BME280;49858;48.956;9.076;2023-04-12T06:55:05;97681.03;;;9.79;100.00
63715;BME280;49858;48.956;9.076;2023-04-12T06:57:33;97672.16;;;9.59;100.00
63715;BME280;49858;48.956;9.076;2023-04-12T07:00:02;97668.94;;;9.87;100.00
63715;BME280;49858;48.956;9.076;2023-04-12T07:02:30;97665.97;;;10.03;100.00
63715;BME280;49858;48.956;9.076;2023-04-12T07:04:59;97656.91;;;9.99;100.00
63715;BME280;49858;48.956;9.076;2023-04-12T07:07:27;97655.81;;;10.11;100.00
63715;BME280;49858;48.956;9.076;2023-04-12T07:09:55;97648.91;;;10.24;100.00
63715;BME280;49858;48.956;9.076;2023-04-12T07:12:23;97652.59;;;9.98;100.00
63715;BME280;49858;48.956;9.076;2023-04-12T07:14:50;97641.81;;;10.23;100.00
63715;BME280;49858;48.956;9.076;2023-04-12T07:17:22;97638.28;;;10.22;100.00
63715;BME280;49858;48.956;9.076;2023-04-12T07:19:53;97637.34;;;10.52;100.00
63715;BME280;49858;48.956;9.076;2023-04-12T07:22:22;97619.66;;;10.46;100.00
63715;BME280;49858;48.956;9.076;2023-04-12T07:24:50;97615.31;;;10.48;100.00
63715;BME280;49858;48.956;9.076;2023-04-12T07:27:17;97619.09;;;10.26;100.00
63715;BME280;49858;48.956;9.076;2023-04-12T07:29:45;97616.53;;;10.07;100.00
63715;BME280;49858;48.956;9.076;2023-04-12T07:32:13;97612.13;;;10.36;100.00
63715;BME280;49858;48.956;9.076;2023-04-12T07:34:41;97600.69;;;10.34;100.00
63715;BME280;49858;48.956;9.076;2023-04-12T07:37:09;97591.28;;;10.35;100.00
63715;BME280;49858;48.956;9.076;2023-04-12T07:39:38;97588.81;;;10.22;100.00
63715;BME280;49858;48.956;9.076;2023-04-12T07:42:07;97574.84;;;10.42;100.00
63715;BME280;49858;48.956;9.076;2023-04-12T07:44:35;97569.34;;;10.42;100.00
63715;BME280;49858;48.956;9.076;2023-04-12T07:47:04;97565.19;;;10.69;100.00
63715;BME280;49858;48.956;9.076;2023-04-12T07:49:32;97554.91;;;10.56;100.00
63715;BME280;49858;48.956;9.076;2023-04-12T07:52:00;97553.34;;;10.62;100.00
63715;BME280;49858;48.956;9.076;2023-04-12T07:54:28;97547.56;;;10.78;100.00
63715;BME280;49858;48.956;9.076;2023-04-12T07:56:58;97536.16;;;10.79;100.00
63715;BME280;49858;48.956;9.076;2023-04-12T07:59:28;97538.53;;;10.84;100.00
63715;BME280;49858;48.956;9.076;2023-04-12T08:01:56;97531.91;;;10.92;100.00
63715;BME280;49858;48.956;9.076;2023-04-12T08:04:24;97517.78;;;11.05;100.00
63715;BME280;49858;48.956;9.076;2023-04-12T08:06:54;97514.97;;;10.83;100.00
63715;BME280;49858;48.956;9.076;2023-04-12T08:09:21;97517.41;;;11.10;100.00
63715;BME280;49858;48.956;9.076;2023-04-12T08:11:50;97503.31;;;11.25;100.00
63715;BME280;49858;48.956;9.076;2023-04-12T08:14:19;97507.63;;;11.23;100.00
63715;BME280;49858;48.956;9.076;2023-04-12T08:16:47;97504.50;;;11.35;100.00
63715;BME280;49858;48.956;9.076;2023-04-12T08:19:16;97505.28;;;11.36;100.00
63715;BME280;49858;48.956;9.076;2023-04-12T08:21:44;97507.69;;;11.55;100.00
63715;BME280;49858;48.956;9.076;2023-04-12T08:24:12;97498.25;;;11.63;100.00
63715;BME280;49858;48.956;9.076;2023-04-12T08:26:40;97497.03;;;11.46;100.00
63715;BME280;49858;48.956;9.076;2023-04-12T08:29:07;97501.00;;;11.60;100.00
63715;BME280;49858;48.956;9.076;2023-04-12T08:31:37;97509.63;;;11.44;100.00
63715;BME280;49858;48.956;9.076;2023-04-12T08:34:05;97518.28;;;11.42;100.00
63715;BME280;49858;48.956;9.076;2023-04-12T08:36:33;97510.50;;;11.91;100.00
63715;BME280;49858;48.956;9.076;2023-04-12T08:39:01;97511.28;;;11.88;100.00
63715;BME280;49858;48.956;9.076;2023-04-12T08:41:28;97509.69;;;12.12;100.00
63715;BME280;49858;48.956;9.076;2023-04-12T08:43:58;97498.28;;;12.02;100.00
63715;BME280;49858;48.956;9.076;2023-04-12T08:46:26;97501.41;;;12.12;100.00
63715;BME280;49858;48.956;9.076;2023-04-12T08:48:57;97503.38;;;12.29;100.00
63715;BME280;49858;48.956;9.076;2023-04-12T08:51:25;97499.00;;;12.39;100.00
63715;BME280;49858;48.956;9.076;2023-04-12T08:53:53;97486.06;;;12.11;100.00
63715;BME280;49858;48.956;9.076;2023-04-12T08:56:22;97494.34;;;12.11;100.00
63715;BME280;49858;48.956;9.076;2023-04-12T08:58:51;97487.63;;;12.19;100.00
63715;BME280;49858;48.956;9.076;2023-04-12T09:01:20;97476.59;;;12.19;100.00
63715;BME280;49858;48.956;9.076;2023-04-12T09:03:48;97470.19;;;12.50;100.00
63715;BME280;49858;48.956;9.076;2023-04-12T09:06:17;97474.59;;;12.30;100.00
63715;BME280;49858;48.956;9.076;2023-04-12T09:08:51;97463.53;;;12.37;100.00
63715;BME280;49858;48.956;9.076;2023-04-12T09:11:24;97457.28;;;12.30;100.00
63715;BME280;49858;48.956;9.076;2023-04-12T09:13:55;97451.78;;;12.19;100.00
63715;BME280;49858;48.956;9.076;2023-04-12T09:16:35;97462.81;;;12.19;100.00
63715;BME280;49858;48.956;9.076;2023-04-12T09:19:03;97454.19;;;11.85;100.00
63715;BME280;49858;48.956;9.076;2023-04-12T09:21:32;97450.66;;;11.88;100.00
63715;BME280;49858;48.956;9.076;2023-04-12T09:24:02;97443.94;;;12.10;100.00
63715;BME280;49858;48.956;9.076;2023-04-12T09:26:31;97445.88;;;12.24;100.00
63715;BME280;49858;48.956;9.076;2023-04-12T09:28:59;97447.75;;;12.48;100.00
63715;BME280;49858;48.956;9.076;2023-04-12T09:31:27;97451.63;;;12.69;100.00
63715;BME280;49858;48.956;9.076;2023-04-12T09:34:05;97445.47;;;12.25;100.00
63715;BME280;49858;48.956;9.076;2023-04-12T09:36:38;97442.63;;;12.50;100.00
63715;BME280;49858;48.956;9.076;2023-04-12T09:39:06;97436.00;;;12.23;100.00
63715;BME280;49858;48.956;9.076;2023-04-12T09:41:34;97442.69;;;12.33;100.00
63715;BME280;49858;48.956;9.076;2023-04-12T09:44:02;97438.38;;;12.24;100.00
63715;BME280;49858;48.956;9.076;2023-04-12T09:46:30;97429.78;;;11.97;100.00
63715;BME280;49858;48.956;9.076;2023-04-12T09:48:59;97424.19;;;12.22;100.00
63715;BME280;49858;48.956;9.076;2023-04-12T09:51:30;97419.75;;;12.57;100.00
63715;BME280;49858;48.956;9.076;2023-04-12T09:54:01;97414.00;;;12.09;100.00
63715;BME280;49858;48.956;9.076;2023-04-12T09:56:30;97423.06;;;12.09;100.00
63715;BME280;49858;48.956;9.076;2023-04-12T09:59:00;97419.03;;;12.35;100.00
63715;BME280;49858;48.956;9.076;2023-04-12T10:01:33;97423.84;;;11.99;100.00
63715;BME280;49858;48.956;9.076;2023-04-12T10:04:01;97423.47;;;12.00;100.00
63715;BME280;49858;48.956;9.076;2023-04-12T10:06:31;97414.97;;;12.65;100.00
63715;BME280;49858;48.956;9.076;2023-04-12T10:09:02;97402.84;;;12.48;100.00
63715;BME280;49858;48.956;9.076;2023-04-12T10:11:31;97402.59;;;11.99;100.00
63715;BME280;49858;48.956;9.076;2023-04-12T10:14:01;97406.53;;;11.95;100.00
63715;BME280;49858;48.956;9.076;2023-04-12T10:16:29;97411.19;;;12.23;100.00
63715;BME280;49858;48.956;9.076;2023-04-12T10:18:59;97393.03;;;12.40;100.00
63715;BME280;49858;48.956;9.076;2023-04-12T10:21:28;97395.06;;;12.18;100.00
63715;BME280;49858;48.956;9.076;2023-04-12T10:23:56;97400.97;;;12.16;100.00
63715;BME280;49858;48.956;9.076;2023-04-12T10:26:26;97389.13;;;12.30;100.00
63715;BME280;49858;48.956;9.076;2023-04-12T10:29:21;97374.72;;;12.78;100.00
63715;BME280;49858;48.956;9.076;2023-04-12T10:31:50;97380.94;;;12.93;100.00
63715;BME280;49858;48.956;9.076;2023-04-12T10:34:23;97371.97;;;12.74;100.00
63715;BME280;49858;48.956;9.076;2023-04-12T10:36:53;97376.00;;;13.25;100.00
63715;BME280;49858;48.956;9.076;2023-04-12T10:39:36;97372.25;;;12.94;100.00
63715;BME280;49858;48.956;9.076;2023-04-12T10:42:20;97363.56;;;12.99;100.00
63715;BME280;49858;48.956;9.076;2023-04-12T10:44:50;97361.91;;;13.09;100.00
63715;BME280;49858;48.956;9.076;2023-04-12T10:47:55;97366.75;;;12.91;100.00
63715;BME280;49858;48.956;9.076;2023-04-12T10:50:28;97369.25;;;13.30;100.00
63715;BME280;49858;48.956;9.076;2023-04-12T10:53:20;97354.69;;;13.26;100.00
63715;BME280;49858;48.956;9.076;2023-04-12T10:55:48;97355.94;;;14.04;100.00
63715;BME280;49858;48.956;9.076;2023-04-12T10:58:56;97352.97;;;13.46;100.00
63715;BME280;49858;48.956;9.076;2023-04-12T11:01:28;97355.06;;;13.73;100.00
63715;BME280;49858;48.956;9.076;2023-04-12T11:04:15;97352.59;;;13.82;100.00
63715;BME280;49858;48.956;9.076;2023-04-12T11:06:58;97345.94;;;14.14;100.00
63715;BME280;49858;48.956;9.076;2023-04-12T11:09:58;97320.44;;;13.65;100.00
63715;BME280;49858;48.956;9.076;2023-04-12T11:12:31;97313.53;;;13.84;100.00
63715;BME280;49858;48.956;9.076;2023-04-12T11:15:00;97327.34;;;13.84;100.00
63715;BME280;49858;48.956;9.076;2023-04-12T11:17:52;97325.03;;;13.78;100.00
63715;BME280;49858;48.956;9.076;2023-04-12T11:20:21;97332.13;;;14.14;100.00
63715;BME280;49858;48.956;9.076;2023-04-12T11:22:49;97312.13;;;13.65;100.00
63715;BME280;49858;48.956;9.076;2023-04-12T11:25:22;97322.00;;;13.66;100.00
63715;BME280;49858;48.956;9.076;2023-04-12T11:27:53;97309.81;;;13.11;100.00
63715;BME280;49858;48.956;9.076;2023-04-12T11:30:27;97320.19;;;13.48;100.00
63715;BME280;49858;48.956;9.076;2023-04-12T11:32:54;97316.59;;;13.51;100.00
63715;BME280;49858;48.956;9.076;2023-04-12T11:35:22;97313.25;;;13.71;100.00
63715;BME280;49858;48.956;9.076;2023-04-12T11:37:53;97313.75;;;14.30;100.00
63715;BME280;49858;48.956;9.076;2023-04-12T11:40:25;97302.50;;;14.14;100.00
63715;BME280;49858;48.956;9.076;2023-04-12T11:42:53;97293.72;;;14.80;100.00
63715;BME280;49858;48.956;9.076;2023-04-12T11:45:23;97295.34;;;14.78;100.00
63715;BME280;49858;48.956;9.076;2023-04-12T11:47:55;97293.59;;;14.30;100.00
63715;BME280;49858;48.956;9.076;2023-04-12T11:50:27;97287.34;;;14.56;100.00
63715;BME280;49858;48.956;9.076;2023-04-12T11:53:08;97283.22;;;14.07;100.00
63715;BME280;49858;48.956;9.076;2023-04-12T11:55:37;97285.19;;;14.68;100.00
63715;BME280;49858;48.956;9.076;2023-04-12T11:58:05;97291.97;;;14.32;100.00
63715;BME280;49858;48.956;9.076;2023-04-12T12:00:33;97282.44;;;14.37;100.00
63715;BME280;49858;48.956;9.076;2023-04-12T12:03:03;97286.31;;;14.43;100.00
63715;BME280;49858;48.956;9.076;2023-04-12T12:05:35;97263.19;;;13.99;100.00
63715;BME280;49858;48.956;9.076;2023-04-12T12:08:07;97264.41;;;13.95;100.00
63715;BME280;49858;48.956;9.076;2023-04-12T12:10:36;97268.66;;;13.69;100.00
63715;BME280;49858;48.956;9.076;2023-04-12T12:13:24;97260.09;;;13.94;100.00
63715;BME280;49858;48.956;9.076;2023-04-12T12:15:56;97272.41;;;13.51;100.00
63715;BME280;49858;48.956;9.076;2023-04-12T12:18:26;97265.94;;;13.65;100.00
63715;BME280;49858;48.956;9.076;2023-04-12T12:20:54;97255.81;;;13.89;100.00
63715;BME280;49858;48.956;9.076;2023-04-12T12:23:31;97254.03;;;14.33;100.00
63715;BME280;49858;48.956;9.076;2023-04-12T12:26:02;97254.16;;;14.26;100.00
63715;BME280;49858;48.956;9.076;2023-04-12T12:28:51;97256.25;;;14.15;100.00
63715;BME280;49858;48.956;9.076;2023-04-12T12:31:21;97254.41;;;14.04;100.00
63715;BME280;49858;48.956;9.076;2023-04-12T12:33:54;97257.78;;;13.89;100.00
63715;BME280;49858;48.956;9.076;2023-04-12T12:36:28;97251.75;;;14.28;100.00
63715;BME280;49858;48.956;9.076;2023-04-12T12:39:02;97261.16;;;14.03;100.00
63715;BME280;49858;48.956;9.076;2023-04-12T12:41:32;97250.06;;;14.65;100.00
63715;BME280;49858;48.956;9.076;2023-04-12T12:44:00;97241.84;;;14.57;100.00
63715;BME280;49858;48.956;9.076;2023-04-12T12:46:28;97239.94;;;14.54;100.00
63715;BME280;49858;48.956;9.076;2023-04-12T12:49:19;97232.28;;;14.89;100.00
63715;BME280;49858;48.956;9.076;2023-04-12T12:51:46;97239.66;;;14.45;100.00
63715;BME280;49858;48.956;9.076;2023-04-12T12:54:15;97232.56;;;14.95;100.00
63715;BME280;49858;48.956;9.076;2023-04-12T12:57:02;97218.50;;;15.29;100.00
63715;BME280;49858;48.956;9.076;2023-04-12T12:59:30;97221.28;;;15.29;100.00
63715;BME280;49858;48.956;9.076;2023-04-12T13:01:57;97214.88;;;14.65;100.00
63715;BME280;49858;48.956;9.076;2023-04-12T13:04:27;97217.25;;;14.63;100.00
63715;BME280;49858;48.956;9.076;2023-04-12T13:06:55;97233.72;;;14.43;100.00
63715;BME280;49858;48.956;9.076;2023-04-12T13:09:23;97224.22;;;14.48;100.00
63715;BME280;49858;48.956;9.076;2023-04-12T13:11:51;97207.03;;;14.60;100.00
63715;BME280;49858;48.956;9.076;2023-04-12T13:14:19;97216.91;;;14.61;100.00
63715;BME280;49858;48.956;9.076;2023-04-12T13:16:46;97212.38;;;14.44;100.00